« 懐古蔵出:瀬長島 那覇空港 2001/12/9 sun | トップページ | 定点 富山空港 2020/6/3 wed »

2020/05/30

定点 富山空港 2020/5/30 sat

昨日は、東京の都心をブルーインパルスが、医療従事者等への感謝を表す航過飛行が大人気でした。奇しくも当地では、その時間に富山県ドクターヘリさんが、実任務で飛行していました。すっかり身近になり、すぐ来てくれる重要な資源となっています。

RJNT 292300Z 21003KT 130V280 9999 FEW020 20/13 Q1020

20200530_rjnt_00ja17ac

小生の感謝の意は、そんなドクヘリさんを地道に記録するところ。

20200530_rjnt_01ja17ac

JA17AC A109SP SAK 富山県ドクターヘリ

今朝の御出勤

RJNT 300000Z VRB04KT 9999 FEW020 21/09 Q1020

20200530_rjnt_02ja9411

空港では、昨日来た中日本さんが出発

20200530_rjnt_03ja9411

JA9411 AS350B NNK

20200530_rjnt_04fav

救急医療搬送車が朝のランニング

RJNT 300100Z 36007KT 320V060 9999 FEW020 23/13 Q1020

20200530_rjnt_05ohlwl

FIN78 RJBB-EFHK OH-LWL A350-941

20200530_rjnt_06ja9411

JA9411↓

RJNT 300200Z 36009KT 9999 FEW020 23/12 Q1020

20200530_rjnt_07ja2410

JA6512↓ AS350B3 AKF

 

|

« 懐古蔵出:瀬長島 那覇空港 2001/12/9 sun | トップページ | 定点 富山空港 2020/6/3 wed »

富山空港」カテゴリの記事

場外」カテゴリの記事

警務消防」カテゴリの記事

コメント

コメントを書く



(ウェブ上には掲載しません)


コメントは記事投稿者が公開するまで表示されません。



« 懐古蔵出:瀬長島 那覇空港 2001/12/9 sun | トップページ | 定点 富山空港 2020/6/3 wed »